sensor_id;sensor_type;location;lat;lon;timestamp;temperature;humidity
33105;DHT22;19476;51.448;6.674;2023-06-04T00:01:43;22.20;26.90
33105;DHT22;19476;51.448;6.674;2023-06-04T00:04:38;22.20;26.90
33105;DHT22;19476;51.448;6.674;2023-06-04T00:10:35;22.10;27.30
33105;DHT22;19476;51.448;6.674;2023-06-04T00:13:02;22.10;27.50
33105;DHT22;19476;51.448;6.674;2023-06-04T00:15:30;22.00;27.30
33105;DHT22;19476;51.448;6.674;2023-06-04T00:17:56;22.00;27.50
33105;DHT22;19476;51.448;6.674;2023-06-04T00:20:22;22.00;27.70
33105;DHT22;19476;51.448;6.674;2023-06-04T00:22:48;22.00;27.80
33105;DHT22;19476;51.448;6.674;2023-06-04T00:25:35;21.90;28.00
33105;DHT22;19476;51.448;6.674;2023-06-04T00:28:04;21.90;28.50
33105;DHT22;19476;51.448;6.674;2023-06-04T00:30:43;21.90;28.60
33105;DHT22;19476;51.448;6.674;2023-06-04T00:33:30;21.80;28.50
33105;DHT22;19476;51.448;6.674;2023-06-04T00:35:56;21.80;29.50
33105;DHT22;19476;51.448;6.674;2023-06-04T00:38:22;21.80;28.80
33105;DHT22;19476;51.448;6.674;2023-06-04T00:40:48;21.70;28.90
33105;DHT22;19476;51.448;6.674;2023-06-04T00:43:20;21.60;29.10
33105;DHT22;19476;51.448;6.674;2023-06-04T00:45:49;21.70;29.80
33105;DHT22;19476;51.448;6.674;2023-06-04T00:48:16;21.60;29.80
33105;DHT22;19476;51.448;6.674;2023-06-04T00:50:42;21.60;29.60
33105;DHT22;19476;51.448;6.674;2023-06-04T00:53:19;21.50;29.80
33105;DHT22;19476;51.448;6.674;2023-06-04T00:55:45;21.50;30.40
33105;DHT22;19476;51.448;6.674;2023-06-04T00:58:14;21.50;30.00
33105;DHT22;19476;51.448;6.674;2023-06-04T01:01:17;21.40;30.50
33105;DHT22;19476;51.448;6.674;2023-06-04T01:03:42;21.40;31.00
33105;DHT22;19476;51.448;6.674;2023-06-04T01:06:25;21.40;31.00
33105;DHT22;19476;51.448;6.674;2023-06-04T01:08:54;21.30;31.30
33105;DHT22;19476;51.448;6.674;2023-06-04T01:11:37;21.30;30.80
33105;DHT22;19476;51.448;6.674;2023-06-04T01:14:04;21.20;31.50
33105;DHT22;19476;51.448;6.674;2023-06-04T01:16:36;21.20;31.10
33105;DHT22;19476;51.448;6.674;2023-06-04T01:19:16;21.20;31.60
33105;DHT22;19476;51.448;6.674;2023-06-04T01:21:52;21.10;31.90
33105;DHT22;19476;51.448;6.674;2023-06-04T01:24:21;21.10;31.80
33105;DHT22;19476;51.448;6.674;2023-06-04T01:26:48;21.00;31.80
33105;DHT22;19476;51.448;6.674;2023-06-04T01:29:15;21.00;31.90
33105;DHT22;19476;51.448;6.674;2023-06-04T01:31:41;20.90;31.90
33105;DHT22;19476;51.448;6.674;2023-06-04T01:34:08;20.90;32.10
33105;DHT22;19476;51.448;6.674;2023-06-04T01:36:33;20.80;32.30
33105;DHT22;19476;51.448;6.674;2023-06-04T01:38:59;20.80;32.40
33105;DHT22;19476;51.448;6.674;2023-06-04T01:41:26;20.50;32.40
33105;DHT22;19476;51.448;6.674;2023-06-04T01:43:51;20.70;32.60
33105;DHT22;19476;51.448;6.674;2023-06-04T01:46:17;20.70;32.80
33105;DHT22;19476;51.448;6.674;2023-06-04T01:48:43;20.60;32.90
33105;DHT22;19476;51.448;6.674;2023-06-04T01:51:09;20.60;33.00
33105;DHT22;19476;51.448;6.674;2023-06-04T01:53:34;20.60;33.20
33105;DHT22;19476;51.448;6.674;2023-06-04T01:56:01;20.50;33.20
33105;DHT22;19476;51.448;6.674;2023-06-04T01:58:27;20.50;33.30
33105;DHT22;19476;51.448;6.674;2023-06-04T02:00:54;20.50;33.50
33105;DHT22;19476;51.448;6.674;2023-06-04T02:03:21;20.40;33.50
33105;DHT22;19476;51.448;6.674;2023-06-04T02:05:48;20.40;33.70
33105;DHT22;19476;51.448;6.674;2023-06-04T02:08:17;20.50;33.80
33105;DHT22;19476;51.448;6.674;2023-06-04T02:10:47;20.40;34.20
33105;DHT22;19476;51.448;6.674;2023-06-04T02:13:14;20.40;34.00
33105;DHT22;19476;51.448;6.674;2023-06-04T02:15:40;20.40;34.10
33105;DHT22;19476;51.448;6.674;2023-06-04T02:18:16;20.30;34.00
33105;DHT22;19476;51.448;6.674;2023-06-04T02:20:45;20.30;34.70
33105;DHT22;19476;51.448;6.674;2023-06-04T02:23:11;20.30;34.50
33105;DHT22;19476;51.448;6.674;2023-06-04T02:25:37;20.30;34.40
33105;DHT22;19476;51.448;6.674;2023-06-04T02:28:03;20.30;34.40
33105;DHT22;19476;51.448;6.674;2023-06-04T02:30:29;20.30;34.50
33105;DHT22;19476;51.448;6.674;2023-06-04T02:32:55;20.20;34.50
33105;DHT22;19476;51.448;6.674;2023-06-04T02:35:21;20.20;34.60
33105;DHT22;19476;51.448;6.674;2023-06-04T02:37:49;20.20;34.70
33105;DHT22;19476;51.448;6.674;2023-06-04T02:40:15;20.10;34.80
33105;DHT22;19476;51.448;6.674;2023-06-04T02:42:41;20.10;34.80
33105;DHT22;19476;51.448;6.674;2023-06-04T02:45:07;20.10;34.90
33105;DHT22;19476;51.448;6.674;2023-06-04T02:47:33;20.10;35.10
33105;DHT22;19476;51.448;6.674;2023-06-04T02:49:58;20.00;35.10
33105;DHT22;19476;51.448;6.674;2023-06-04T02:52:24;20.00;35.20
33105;DHT22;19476;51.448;6.674;2023-06-04T02:54:51;20.00;35.20
33105;DHT22;19476;51.448;6.674;2023-06-04T02:57:17;20.00;35.40
33105;DHT22;19476;51.448;6.674;2023-06-04T02:59:42;20.00;35.40
33105;DHT22;19476;51.448;6.674;2023-06-04T03:02:08;19.90;35.50
33105;DHT22;19476;51.448;6.674;2023-06-04T03:04:35;20.00;35.70
33105;DHT22;19476;51.448;6.674;2023-06-04T03:07:04;19.90;35.90
33105;DHT22;19476;51.448;6.674;2023-06-04T03:09:30;19.90;36.20
33105;DHT22;19476;51.448;6.674;2023-06-04T03:12:05;19.90;36.00
33105;DHT22;19476;51.448;6.674;2023-06-04T03:14:32;19.90;36.70
33105;DHT22;19476;51.448;6.674;2023-06-04T03:17:02;19.90;36.20
33105;DHT22;19476;51.448;6.674;2023-06-04T03:19:37;19.80;36.30
33105;DHT22;19476;51.448;6.674;2023-06-04T03:22:04;19.90;36.60
33105;DHT22;19476;51.448;6.674;2023-06-04T03:24:38;19.80;36.40
33105;DHT22;19476;51.448;6.674;2023-06-04T03:27:04;19.80;36.70
33105;DHT22;19476;51.448;6.674;2023-06-04T03:29:34;19.80;36.30
33105;DHT22;19476;51.448;6.674;2023-06-04T03:32:01;19.80;36.40
33105;DHT22;19476;51.448;6.674;2023-06-04T03:34:27;19.80;36.60
33105;DHT22;19476;51.448;6.674;2023-06-04T03:36:57;19.80;36.50
33105;DHT22;19476;51.448;6.674;2023-06-04T03:39:23;19.80;36.60
33105;DHT22;19476;51.448;6.674;2023-06-04T03:41:49;19.70;36.40
33105;DHT22;19476;51.448;6.674;2023-06-04T03:44:16;19.70;36.50
33105;DHT22;19476;51.448;6.674;2023-06-04T03:46:43;19.70;36.60
33105;DHT22;19476;51.448;6.674;2023-06-04T03:49:10;19.70;36.60
33105;DHT22;19476;51.448;6.674;2023-06-04T03:51:39;19.70;36.70
33105;DHT22;19476;51.448;6.674;2023-06-04T03:54:05;19.70;36.80
33105;DHT22;19476;51.448;6.674;2023-06-04T03:56:32;19.70;36.70
33105;DHT22;19476;51.448;6.674;2023-06-04T03:58:57;19.50;36.70
33105;DHT22;19476;51.448;6.674;2023-06-04T04:01:24;19.70;36.90
33105;DHT22;19476;51.448;6.674;2023-06-04T04:03:50;19.70;37.00
33105;DHT22;19476;51.448;6.674;2023-06-04T04:06:17;19.60;37.10
33105;DHT22;19476;51.448;6.674;2023-06-04T04:08:43;19.40;37.10
33105;DHT22;19476;51.448;6.674;2023-06-04T04:11:16;19.60;37.20
33105;DHT22;19476;51.448;6.674;2023-06-04T04:13:42;19.60;37.60
33105;DHT22;19476;51.448;6.674;2023-06-04T04:16:08;19.60;37.30
33105;DHT22;19476;51.448;6.674;2023-06-04T04:18:35;19.60;37.30
33105;DHT22;19476;51.448;6.674;2023-06-04T04:21:03;19.60;37.40
33105;DHT22;19476;51.448;6.674;2023-06-04T04:23:30;19.60;38.20
33105;DHT22;19476;51.448;6.674;2023-06-04T04:25:58;19.60;37.50
33105;DHT22;19476;51.448;6.674;2023-06-04T04:28:28;19.60;37.70
33105;DHT22;19476;51.448;6.674;2023-06-04T04:30:55;19.60;37.70
33105;DHT22;19476;51.448;6.674;2023-06-04T04:33:23;19.60;37.70
33105;DHT22;19476;51.448;6.674;2023-06-04T04:35:50;19.60;37.70
33105;DHT22;19476;51.448;6.674;2023-06-04T04:38:16;19.60;37.80
33105;DHT22;19476;51.448;6.674;2023-06-04T04:40:45;19.50;37.70
33105;DHT22;19476;51.448;6.674;2023-06-04T04:43:13;19.60;37.80
33105;DHT22;19476;51.448;6.674;2023-06-04T04:45:39;19.60;37.80
33105;DHT22;19476;51.448;6.674;2023-06-04T04:48:05;19.60;37.80
33105;DHT22;19476;51.448;6.674;2023-06-04T04:50:31;19.60;37.80
33105;DHT22;19476;51.448;6.674;2023-06-04T04:52:58;19.60;37.80
33105;DHT22;19476;51.448;6.674;2023-06-04T04:55:24;19.60;37.90
33105;DHT22;19476;51.448;6.674;2023-06-04T04:57:50;19.70;37.90
33105;DHT22;19476;51.448;6.674;2023-06-04T05:00:16;19.70;37.90
33105;DHT22;19476;51.448;6.674;2023-06-04T05:02:42;19.70;37.90
33105;DHT22;19476;51.448;6.674;2023-06-04T05:05:09;19.70;37.90
33105;DHT22;19476;51.448;6.674;2023-06-04T05:07:36;19.70;37.90
33105;DHT22;19476;51.448;6.674;2023-06-04T05:10:01;19.70;37.80
33105;DHT22;19476;51.448;6.674;2023-06-04T05:12:29;19.80;37.90
33105;DHT22;19476;51.448;6.674;2023-06-04T05:14:57;19.80;38.00
33105;DHT22;19476;51.448;6.674;2023-06-04T05:17:22;19.80;37.80
33105;DHT22;19476;51.448;6.674;2023-06-04T05:19:58;19.90;37.90
33105;DHT22;19476;51.448;6.674;2023-06-04T05:22:37;19.90;38.00
33105;DHT22;19476;51.448;6.674;2023-06-04T05:25:04;19.90;37.90
33105;DHT22;19476;51.448;6.674;2023-06-04T05:27:31;20.00;37.80
33105;DHT22;19476;51.448;6.674;2023-06-04T05:29:57;20.00;37.70
33105;DHT22;19476;51.448;6.674;2023-06-04T05:32:23;20.00;37.70
33105;DHT22;19476;51.448;6.674;2023-06-04T05:34:54;20.10;37.60
33105;DHT22;19476;51.448;6.674;2023-06-04T05:37:25;20.10;37.60
33105;DHT22;19476;51.448;6.674;2023-06-04T05:39:52;20.00;37.60
33105;DHT22;19476;51.448;6.674;2023-06-04T05:42:19;20.20;37.30
33105;DHT22;19476;51.448;6.674;2023-06-04T05:44:45;20.40;37.30
33105;DHT22;19476;51.448;6.674;2023-06-04T05:47:11;20.20;37.00
33105;DHT22;19476;51.448;6.674;2023-06-04T05:49:36;20.30;37.10
33105;DHT22;19476;51.448;6.674;2023-06-04T05:52:04;20.30;37.00
33105;DHT22;19476;51.448;6.674;2023-06-04T05:54:30;20.40;36.90
33105;DHT22;19476;51.448;6.674;2023-06-04T05:56:56;20.40;36.70
33105;DHT22;19476;51.448;6.674;2023-06-04T05:59:22;20.50;36.70
33105;DHT22;19476;51.448;6.674;2023-06-04T06:01:49;20.20;36.40
33105;DHT22;19476;51.448;6.674;2023-06-04T06:04:15;20.60;36.60
33105;DHT22;19476;51.448;6.674;2023-06-04T06:06:43;20.60;36.40
33105;DHT22;19476;51.448;6.674;2023-06-04T06:09:10;20.60;36.80
33105;DHT22;19476;51.448;6.674;2023-06-04T06:11:39;20.70;36.30
33105;DHT22;19476;51.448;6.674;2023-06-04T06:14:05;20.80;36.20
33105;DHT22;19476;51.448;6.674;2023-06-04T06:16:30;20.90;36.10
33105;DHT22;19476;51.448;6.674;2023-06-04T06:18:58;20.90;36.00
33105;DHT22;19476;51.448;6.674;2023-06-04T06:21:25;21.00;35.80
33105;DHT22;19476;51.448;6.674;2023-06-04T06:23:51;21.00;35.70
33105;DHT22;19476;51.448;6.674;2023-06-04T06:26:17;21.10;35.70
33105;DHT22;19476;51.448;6.674;2023-06-04T06:28:44;21.20;36.10
33105;DHT22;19476;51.448;6.674;2023-06-04T06:31:10;21.20;35.60
33105;DHT22;19476;51.448;6.674;2023-06-04T06:33:39;21.40;35.70
33105;DHT22;19476;51.448;6.674;2023-06-04T06:36:07;21.40;35.60
33105;DHT22;19476;51.448;6.674;2023-06-04T06:38:33;21.50;35.50
33105;DHT22;19476;51.448;6.674;2023-06-04T06:40:59;21.50;35.30
33105;DHT22;19476;51.448;6.674;2023-06-04T06:43:25;21.60;35.10
33105;DHT22;19476;51.448;6.674;2023-06-04T06:45:51;21.60;35.00
33105;DHT22;19476;51.448;6.674;2023-06-04T06:48:17;21.70;35.00
33105;DHT22;19476;51.448;6.674;2023-06-04T06:50:43;21.70;35.00
33105;DHT22;19476;51.448;6.674;2023-06-04T06:53:08;21.80;35.00
33105;DHT22;19476;51.448;6.674;2023-06-04T06:55:34;21.80;35.10
33105;DHT22;19476;51.448;6.674;2023-06-04T06:58:00;21.90;35.60
33105;DHT22;19476;51.448;6.674;2023-06-04T07:00:26;21.90;35.00
33105;DHT22;19476;51.448;6.674;2023-06-04T07:02:53;21.90;34.80
33105;DHT22;19476;51.448;6.674;2023-06-04T07:05:19;22.00;34.70
33105;DHT22;19476;51.448;6.674;2023-06-04T07:07:45;22.10;34.60
33105;DHT22;19476;51.448;6.674;2023-06-04T07:10:12;22.10;34.40
33105;DHT22;19476;51.448;6.674;2023-06-04T07:12:38;22.20;34.20
33105;DHT22;19476;51.448;6.674;2023-06-04T07:15:05;22.30;34.00
33105;DHT22;19476;51.448;6.674;2023-06-04T07:17:32;22.30;33.80
33105;DHT22;19476;51.448;6.674;2023-06-04T07:19:58;22.40;33.70
33105;DHT22;19476;51.448;6.674;2023-06-04T07:22:23;22.40;33.40
33105;DHT22;19476;51.448;6.674;2023-06-04T07:24:49;22.50;33.30
33105;DHT22;19476;51.448;6.674;2023-06-04T07:27:15;22.60;33.20
33105;DHT22;19476;51.448;6.674;2023-06-04T07:29:43;22.70;33.10
33105;DHT22;19476;51.448;6.674;2023-06-04T07:32:10;22.70;33.00
33105;DHT22;19476;51.448;6.674;2023-06-04T07:34:38;22.80;32.80
33105;DHT22;19476;51.448;6.674;2023-06-04T07:37:03;22.90;32.60
33105;DHT22;19476;51.448;6.674;2023-06-04T07:39:29;22.90;32.50
33105;DHT22;19476;51.448;6.674;2023-06-04T07:41:55;23.00;32.30
33105;DHT22;19476;51.448;6.674;2023-06-04T07:44:21;23.10;32.20
33105;DHT22;19476;51.448;6.674;2023-06-04T07:46:47;23.10;32.00
33105;DHT22;19476;51.448;6.674;2023-06-04T07:49:13;23.20;31.90
33105;DHT22;19476;51.448;6.674;2023-06-04T07:51:38;23.20;31.90
33105;DHT22;19476;51.448;6.674;2023-06-04T07:54:04;23.30;31.80
33105;DHT22;19476;51.448;6.674;2023-06-04T07:56:30;23.30;31.60
33105;DHT22;19476;51.448;6.674;2023-06-04T07:58:56;23.40;31.40
33105;DHT22;19476;51.448;6.674;2023-06-04T08:01:21;23.40;31.10
33105;DHT22;19476;51.448;6.674;2023-06-04T08:03:49;23.50;31.00
33105;DHT22;19476;51.448;6.674;2023-06-04T08:06:15;23.50;31.00
33105;DHT22;19476;51.448;6.674;2023-06-04T08:08:46;23.60;31.10
33105;DHT22;19476;51.448;6.674;2023-06-04T08:11:14;23.70;30.80
33105;DHT22;19476;51.448;6.674;2023-06-04T08:13:40;23.70;31.00
33105;DHT22;19476;51.448;6.674;2023-06-04T08:16:06;23.80;31.00
33105;DHT22;19476;51.448;6.674;2023-06-04T08:18:33;23.90;30.90
33105;DHT22;19476;51.448;6.674;2023-06-04T08:20:59;23.90;30.50
33105;DHT22;19476;51.448;6.674;2023-06-04T08:23:24;24.00;30.50
33105;DHT22;19476;51.448;6.674;2023-06-04T08:25:50;24.10;30.10
33105;DHT22;19476;51.448;6.674;2023-06-04T08:28:16;24.10;30.00
33105;DHT22;19476;51.448;6.674;2023-06-04T08:30:42;24.20;29.90
33105;DHT22;19476;51.448;6.674;2023-06-04T08:33:08;24.30;29.70
33105;DHT22;19476;51.448;6.674;2023-06-04T08:35:34;24.30;29.50
33105;DHT22;19476;51.448;6.674;2023-06-04T08:38:00;24.40;29.50
33105;DHT22;19476;51.448;6.674;2023-06-04T08:40:26;24.40;29.20
33105;DHT22;19476;51.448;6.674;2023-06-04T08:42:55;24.50;29.00
33105;DHT22;19476;51.448;6.674;2023-06-04T08:45:24;24.60;28.70
33105;DHT22;19476;51.448;6.674;2023-06-04T08:47:52;24.60;29.00
33105;DHT22;19476;51.448;6.674;2023-06-04T08:50:20;24.70;28.80
33105;DHT22;19476;51.448;6.674;2023-06-04T08:52:46;24.80;28.40
33105;DHT22;19476;51.448;6.674;2023-06-04T08:55:13;24.80;28.40
33105;DHT22;19476;51.448;6.674;2023-06-04T08:57:40;24.90;28.20
33105;DHT22;19476;51.448;6.674;2023-06-04T09:00:09;25.00;28.00
33105;DHT22;19476;51.448;6.674;2023-06-04T09:02:38;25.00;27.60
33105;DHT22;19476;51.448;6.674;2023-06-04T09:05:05;25.10;27.40
33105;DHT22;19476;51.448;6.674;2023-06-04T09:07:39;25.20;27.80
33105;DHT22;19476;51.448;6.674;2023-06-04T09:10:07;25.20;27.50
33105;DHT22;19476;51.448;6.674;2023-06-04T09:12:42;25.30;27.80
33105;DHT22;19476;51.448;6.674;2023-06-04T09:15:10;25.40;27.40
33105;DHT22;19476;51.448;6.674;2023-06-04T09:17:36;25.40;27.30
33105;DHT22;19476;51.448;6.674;2023-06-04T09:20:02;25.50;26.80
33105;DHT22;19476;51.448;6.674;2023-06-04T09:22:36;25.50;26.70
33105;DHT22;19476;51.448;6.674;2023-06-04T09:25:05;25.60;26.40
33105;DHT22;19476;51.448;6.674;2023-06-04T09:27:41;25.60;26.50
33105;DHT22;19476;51.448;6.674;2023-06-04T09:30:07;25.70;26.20
33105;DHT22;19476;51.448;6.674;2023-06-04T09:32:36;25.70;26.50
33105;DHT22;19476;51.448;6.674;2023-06-04T09:35:18;25.80;26.60
33105;DHT22;19476;51.448;6.674;2023-06-04T09:37:55;25.80;26.30
33105;DHT22;19476;51.448;6.674;2023-06-04T09:40:24;25.90;25.60
33105;DHT22;19476;51.448;6.674;2023-06-04T09:42:51;26.00;25.90
33105;DHT22;19476;51.448;6.674;2023-06-04T09:45:35;26.10;25.70
33105;DHT22;19476;51.448;6.674;2023-06-04T09:48:03;26.10;25.50
33105;DHT22;19476;51.448;6.674;2023-06-04T09:50:34;26.20;25.70
33105;DHT22;19476;51.448;6.674;2023-06-04T09:53:16;26.20;25.70
33105;DHT22;19476;51.448;6.674;2023-06-04T09:55:42;26.30;25.70
33105;DHT22;19476;51.448;6.674;2023-06-04T09:58:10;26.30;25.90
33105;DHT22;19476;51.448;6.674;2023-06-04T10:00:37;26.30;25.70
33105;DHT22;19476;51.448;6.674;2023-06-04T10:03:03;26.40;25.90
33105;DHT22;19476;51.448;6.674;2023-06-04T10:05:32;26.50;25.90
33105;DHT22;19476;51.448;6.674;2023-06-04T10:08:01;26.50;25.50
33105;DHT22;19476;51.448;6.674;2023-06-04T10:10:28;26.60;25.70
33105;DHT22;19476;51.448;6.674;2023-06-04T10:13:01;26.70;25.60
33105;DHT22;19476;51.448;6.674;2023-06-04T10:15:29;26.70;25.10
33105;DHT22;19476;51.448;6.674;2023-06-04T10:17:58;26.80;25.40
33105;DHT22;19476;51.448;6.674;2023-06-04T10:20:24;26.80;25.10
33105;DHT22;19476;51.448;6.674;2023-06-04T10:22:50;26.90;25.20
33105;DHT22;19476;51.448;6.674;2023-06-04T10:25:17;26.90;25.10
33105;DHT22;19476;51.448;6.674;2023-06-04T10:27:43;26.90;25.10
33105;DHT22;19476;51.448;6.674;2023-06-04T10:30:10;27.00;25.10
33105;DHT22;19476;51.448;6.674;2023-06-04T10:32:37;27.00;24.80
33105;DHT22;19476;51.448;6.674;2023-06-04T10:35:04;27.10;24.70
33105;DHT22;19476;51.448;6.674;2023-06-04T10:37:32;27.10;24.60
33105;DHT22;19476;51.448;6.674;2023-06-04T10:39:58;27.20;24.60
33105;DHT22;19476;51.448;6.674;2023-06-04T10:42:25;27.20;24.50
33105;DHT22;19476;51.448;6.674;2023-06-04T10:44:53;27.30;24.70
33105;DHT22;19476;51.448;6.674;2023-06-04T10:47:26;27.30;24.60
33105;DHT22;19476;51.448;6.674;2023-06-04T10:49:53;27.40;24.60
33105;DHT22;19476;51.448;6.674;2023-06-04T10:52:23;27.50;24.20
33105;DHT22;19476;51.448;6.674;2023-06-04T10:54:49;27.60;24.30
33105;DHT22;19476;51.448;6.674;2023-06-04T10:57:17;27.70;24.40
33105;DHT22;19476;51.448;6.674;2023-06-04T11:00:00;27.70;24.20
33105;DHT22;19476;51.448;6.674;2023-06-04T11:02:26;27.80;24.20
33105;DHT22;19476;51.448;6.674;2023-06-04T11:05:10;27.80;24.30
33105;DHT22;19476;51.448;6.674;2023-06-04T11:07:47;27.90;24.40
33105;DHT22;19476;51.448;6.674;2023-06-04T11:10:15;28.00;24.10
33105;DHT22;19476;51.448;6.674;2023-06-04T11:12:49;28.10;24.10
33105;DHT22;19476;51.448;6.674;2023-06-04T11:15:26;28.20;23.90
33105;DHT22;19476;51.448;6.674;2023-06-04T11:17:55;28.30;23.90
33105;DHT22;19476;51.448;6.674;2023-06-04T11:20:22;28.40;24.30
33105;DHT22;19476;51.448;6.674;2023-06-04T11:22:52;28.50;24.20
33105;DHT22;19476;51.448;6.674;2023-06-04T11:25:18;28.60;23.50
33105;DHT22;19476;51.448;6.674;2023-06-04T11:27:45;28.60;23.90
33105;DHT22;19476;51.448;6.674;2023-06-04T11:30:11;28.70;23.80
33105;DHT22;19476;51.448;6.674;2023-06-04T11:32:38;29.00;23.90
33105;DHT22;19476;51.448;6.674;2023-06-04T11:35:04;28.90;23.50
33105;DHT22;19476;51.448;6.674;2023-06-04T11:37:32;29.00;23.70
33105;DHT22;19476;51.448;6.674;2023-06-04T11:39:58;29.00;23.50
33105;DHT22;19476;51.448;6.674;2023-06-04T11:42:27;29.10;23.50
33105;DHT22;19476;51.448;6.674;2023-06-04T11:44:57;29.20;23.70
33105;DHT22;19476;51.448;6.674;2023-06-04T11:47:24;29.30;23.10
33105;DHT22;19476;51.448;6.674;2023-06-04T11:49:56;29.30;23.40
33105;DHT22;19476;51.448;6.674;2023-06-04T11:52:22;29.40;23.20
33105;DHT22;19476;51.448;6.674;2023-06-04T11:54:48;29.50;23.20
33105;DHT22;19476;51.448;6.674;2023-06-04T11:57:15;29.60;23.00
33105;DHT22;19476;51.448;6.674;2023-06-04T11:59:41;29.70;23.00
33105;DHT22;19476;51.448;6.674;2023-06-04T12:02:07;29.80;23.00
33105;DHT22;19476;51.448;6.674;2023-06-04T12:04:33;29.80;22.90
33105;DHT22;19476;51.448;6.674;2023-06-04T12:07:01;29.90;22.90
33105;DHT22;19476;51.448;6.674;2023-06-04T12:09:32;30.00;22.90
33105;DHT22;19476;51.448;6.674;2023-06-04T12:12:05;30.10;22.70
33105;DHT22;19476;51.448;6.674;2023-06-04T12:14:32;30.20;22.90
33105;DHT22;19476;51.448;6.674;2023-06-04T12:17:02;30.20;22.70
33105;DHT22;19476;51.448;6.674;2023-06-04T12:19:31;30.30;22.50
33105;DHT22;19476;51.448;6.674;2023-06-04T12:22:07;30.40;22.40
33105;DHT22;19476;51.448;6.674;2023-06-04T12:24:34;30.50;22.10
33105;DHT22;19476;51.448;6.674;2023-06-04T12:27:09;30.50;22.20
33105;DHT22;19476;51.448;6.674;2023-06-04T12:29:35;30.60;21.90
33105;DHT22;19476;51.448;6.674;2023-06-04T12:32:10;30.70;22.30
33105;DHT22;19476;51.448;6.674;2023-06-04T12:34:40;30.80;22.20
33105;DHT22;19476;51.448;6.674;2023-06-04T12:37:07;30.90;22.40
33105;DHT22;19476;51.448;6.674;2023-06-04T12:39:34;31.00;22.20
33105;DHT22;19476;51.448;6.674;2023-06-04T12:42:02;31.10;22.10
33105;DHT22;19476;51.448;6.674;2023-06-04T12:44:28;31.20;22.10
33105;DHT22;19476;51.448;6.674;2023-06-04T12:46:54;31.30;21.80
33105;DHT22;19476;51.448;6.674;2023-06-04T12:49:23;31.30;21.80
33105;DHT22;19476;51.448;6.674;2023-06-04T12:51:48;31.40;21.80
33105;DHT22;19476;51.448;6.674;2023-06-04T12:54:14;31.50;22.00
33105;DHT22;19476;51.448;6.674;2023-06-04T12:56:46;31.60;22.00
33105;DHT22;19476;51.448;6.674;2023-06-04T12:59:12;31.70;21.90
33105;DHT22;19476;51.448;6.674;2023-06-04T13:01:38;31.80;22.00
33105;DHT22;19476;51.448;6.674;2023-06-04T13:04:04;32.00;22.10
33105;DHT22;19476;51.448;6.674;2023-06-04T13:06:31;32.00;21.70
33105;DHT22;19476;51.448;6.674;2023-06-04T13:08:57;32.10;22.00
33105;DHT22;19476;51.448;6.674;2023-06-04T13:11:23;32.20;21.40
33105;DHT22;19476;51.448;6.674;2023-06-04T13:13:50;32.30;21.40
33105;DHT22;19476;51.448;6.674;2023-06-04T13:16:15;32.30;21.40
33105;DHT22;19476;51.448;6.674;2023-06-04T13:18:41;32.40;21.40
33105;DHT22;19476;51.448;6.674;2023-06-04T13:21:07;32.50;21.20
33105;DHT22;19476;51.448;6.674;2023-06-04T13:23:33;32.50;21.30
33105;DHT22;19476;51.448;6.674;2023-06-04T13:25:58;32.60;21.00
33105;DHT22;19476;51.448;6.674;2023-06-04T13:28:26;32.70;21.20
33105;DHT22;19476;51.448;6.674;2023-06-04T13:30:52;32.70;21.10
33105;DHT22;19476;51.448;6.674;2023-06-04T13:33:18;32.80;20.80
33105;DHT22;19476;51.448;6.674;2023-06-04T13:35:45;32.80;20.80
33105;DHT22;19476;51.448;6.674;2023-06-04T13:38:11;32.80;20.70
33105;DHT22;19476;51.448;6.674;2023-06-04T13:40:38;32.90;20.80
33105;DHT22;19476;51.448;6.674;2023-06-04T13:43:05;32.90;20.80
33105;DHT22;19476;51.448;6.674;2023-06-04T13:45:32;33.00;20.90
33105;DHT22;19476;51.448;6.674;2023-06-04T13:47:58;33.10;20.90
33105;DHT22;19476;51.448;6.674;2023-06-04T13:50:28;33.10;20.80
33105;DHT22;19476;51.448;6.674;2023-06-04T13:52:54;33.20;20.80
33105;DHT22;19476;51.448;6.674;2023-06-04T13:55:20;33.30;20.90
33105;DHT22;19476;51.448;6.674;2023-06-04T13:57:46;33.40;21.00
33105;DHT22;19476;51.448;6.674;2023-06-04T14:00:12;33.40;20.80
33105;DHT22;19476;51.448;6.674;2023-06-04T14:02:39;33.50;20.60
33105;DHT22;19476;51.448;6.674;2023-06-04T14:05:05;33.60;20.50
33105;DHT22;19476;51.448;6.674;2023-06-04T14:07:31;33.60;20.50
33105;DHT22;19476;51.448;6.674;2023-06-04T14:09:57;33.70;20.30
33105;DHT22;19476;51.448;6.674;2023-06-04T14:12:23;33.80;20.30
33105;DHT22;19476;51.448;6.674;2023-06-04T14:14:49;33.90;20.50
33105;DHT22;19476;51.448;6.674;2023-06-04T14:17:15;33.90;20.50
33105;DHT22;19476;51.448;6.674;2023-06-04T14:19:41;34.00;20.60
33105;DHT22;19476;51.448;6.674;2023-06-04T14:22:07;34.10;20.70
33105;DHT22;19476;51.448;6.674;2023-06-04T14:24:33;34.10;20.50
33105;DHT22;19476;51.448;6.674;2023-06-04T14:26:59;34.20;20.50
33105;DHT22;19476;51.448;6.674;2023-06-04T14:29:25;34.30;20.40
33105;DHT22;19476;51.448;6.674;2023-06-04T14:31:51;34.30;20.20
33105;DHT22;19476;51.448;6.674;2023-06-04T14:34:17;34.40;20.00
33105;DHT22;19476;51.448;6.674;2023-06-04T14:36:42;34.50;20.00
33105;DHT22;19476;51.448;6.674;2023-06-04T14:39:08;34.50;19.70
33105;DHT22;19476;51.448;6.674;2023-06-04T14:41:34;34.60;19.60
33105;DHT22;19476;51.448;6.674;2023-06-04T14:44:00;34.60;19.50
33105;DHT22;19476;51.448;6.674;2023-06-04T14:46:26;34.60;19.40
33105;DHT22;19476;51.448;6.674;2023-06-04T14:48:52;34.80;19.40
33105;DHT22;19476;51.448;6.674;2023-06-04T14:51:20;34.80;19.30
33105;DHT22;19476;51.448;6.674;2023-06-04T14:53:48;34.90;19.30
33105;DHT22;19476;51.448;6.674;2023-06-04T14:56:16;34.90;19.40
33105;DHT22;19476;51.448;6.674;2023-06-04T14:58:43;35.00;19.50
33105;DHT22;19476;51.448;6.674;2023-06-04T15:01:08;35.00;19.60
33105;DHT22;19476;51.448;6.674;2023-06-04T15:03:38;35.10;19.60
33105;DHT22;19476;51.448;6.674;2023-06-04T15:06:06;35.10;19.40
33105;DHT22;19476;51.448;6.674;2023-06-04T15:08:32;35.20;19.60
33105;DHT22;19476;51.448;6.674;2023-06-04T15:10:58;35.20;19.60
33105;DHT22;19476;51.448;6.674;2023-06-04T15:13:24;35.30;19.60
33105;DHT22;19476;51.448;6.674;2023-06-04T15:15:50;35.40;19.50
33105;DHT22;19476;51.448;6.674;2023-06-04T15:18:16;35.40;19.40
33105;DHT22;19476;51.448;6.674;2023-06-04T15:20:41;35.50;19.40
33105;DHT22;19476;51.448;6.674;2023-06-04T15:23:07;35.60;19.50
33105;DHT22;19476;51.448;6.674;2023-06-04T15:25:33;35.60;19.40
33105;DHT22;19476;51.448;6.674;2023-06-04T15:27:59;35.70;19.30
33105;DHT22;19476;51.448;6.674;2023-06-04T15:30:25;35.80;19.30
33105;DHT22;19476;51.448;6.674;2023-06-04T15:32:51;35.80;19.30
33105;DHT22;19476;51.448;6.674;2023-06-04T15:35:17;35.90;19.30
33105;DHT22;19476;51.448;6.674;2023-06-04T15:37:43;35.90;19.30